Time;durP1;ratioP1;P1;durP2;ratioP2;P2;SDS_P1;SDS_P2;PMS_P1;PMS_P2;Temp;Humidity;BMP_temperature;BMP_pressure;BME280_temperature;BME280_humidity;BME280_pressure;Samples;Min_cycle;Max_cycle;Signal;HPM_P1;HPM_P2
2023/04/29 00:01:07;;;;;;;75.07;45.25;;;11.80;99.90;;;;;;5103048;27;20100;-60
2023/04/29 00:03:33;;;;;;;77.28;45.70;;;12.00;99.90;;;;;;5103339;28;20028;-59
2023/04/29 00:05:59;;;;;;;75.47;46.47;;;11.90;99.90;;;;;;5104001;28;20035;-60
2023/04/29 00:08:25;;;;;;;83.25;48.72;;;11.80;99.90;;;;;;5103006;28;20066;-59
2023/04/29 00:10:51;;;;;;;87.40;49.28;;;11.60;99.90;;;;;;5097605;28;20052;-59
2023/04/29 00:13:16;;;;;;;93.75;52.17;;;11.70;99.90;;;;;;5101241;28;20031;-59
2023/04/29 00:15:43;;;;;;;92.38;51.35;;;11.60;99.90;;;;;;5102657;28;20024;-59
2023/04/29 00:18:09;;;;;;;91.70;49.85;;;11.70;99.90;;;;;;5102984;28;20043;-59
2023/04/29 00:20:36;;;;;;;95.07;50.83;;;11.50;99.90;;;;;;5103412;28;20043;-59
2023/04/29 00:23:02;;;;;;;99.32;52.08;;;11.40;99.90;;;;;;5103011;28;20477;-59
2023/04/29 00:25:28;;;;;;;97.85;52.30;;;11.60;99.90;;;;;;5102544;28;20057;-59
2023/04/29 00:27:54;;;;;;;94.72;50.08;;;11.40;99.90;;;;;;5063307;27;1062416;-59
2023/04/29 00:30:19;;;;;;;102.97;54.45;;;11.50;99.90;;;;;;5103809;28;20562;-59
2023/04/29 00:32:45;;;;;;;101.40;53.20;;;11.40;99.90;;;;;;5110676;27;20034;-59
2023/04/29 00:35:11;;;;;;;103.82;56.08;;;11.40;99.90;;;;;;5104134;27;20031;-59
2023/04/29 00:37:36;;;;;;;110.82;56.78;;;11.20;99.90;;;;;;5103783;28;20451;-59
2023/04/29 00:40:03;;;;;;;112.03;57.03;;;11.20;99.90;;;;;;5103129;28;20051;-59
2023/04/29 00:42:32;;;;;;;108.32;56.90;;;11.30;99.90;;;;;;5096272;28;20487;-59
2023/04/29 00:44:58;;;;;;;105.70;55.67;;;11.40;99.90;;;;;;5103905;28;20028;-60
2023/04/29 00:47:23;;;;;;;106.05;54.60;;;11.40;99.90;;;;;;5101319;27;20092;-59
2023/04/29 00:49:49;;;;;;;106.35;55.03;;;11.40;99.90;;;;;;5089220;28;20081;-59
2023/04/29 00:52:16;;;;;;;110.45;53.60;;;11.30;99.90;;;;;;5102925;28;20040;-59
2023/04/29 00:54:42;;;;;;;105.95;52.25;;;11.10;99.90;;;;;;5103676;28;20502;-59
2023/04/29 00:57:08;;;;;;;103.70;48.10;;;10.90;99.90;;;;;;5103247;28;20118;-59
2023/04/29 00:59:35;;;;;;;107.00;51.60;;;10.90;99.90;;;;;;5094778;28;20566;-59
2023/04/29 01:02:02;;;;;;;110.55;52.35;;;10.90;99.90;;;;;;5103425;28;20475;-59
2023/04/29 01:04:29;;;;;;;111.07;50.47;;;10.90;99.90;;;;;;5111885;27;20031;-59
2023/04/29 01:07:26;;;;;;;113.97;52.53;;;10.80;99.90;;;;;;5102025;28;20032;-60
2023/04/29 01:10:03;;;;;;;113.45;52.28;;;11.00;99.90;;;;;;5089059;27;20475;-59
2023/04/29 01:12:53;;;;;;;117.80;53.17;;;10.80;99.90;;;;;;5103486;27;21012;-59
2023/04/29 01:15:28;;;;;;;113.43;51.90;;;10.90;99.90;;;;;;5102495;28;20498;-60
2023/04/29 01:18:14;;;;;;;129.75;57.08;;;11.00;99.90;;;;;;5102889;28;20093;-59
2023/04/29 01:20:43;;;;;;;127.15;53.92;;;10.80;99.90;;;;;;5102537;28;20043;-59
2023/04/29 01:23:09;;;;;;;129.65;56.70;;;10.60;99.90;;;;;;5102494;28;20074;-60
2023/04/29 01:25:36;;;;;;;132.93;56.63;;;10.30;99.90;;;;;;5103053;28;20186;-60
2023/04/29 01:28:05;;;;;;;126.60;54.05;;;10.70;99.90;;;;;;5101494;28;20036;-59
2023/04/29 01:30:49;;;;;;;115.88;49.80;;;10.40;99.90;;;;;;5102703;28;20166;-59
2023/04/29 01:33:33;;;;;;;;;;;10.30;99.90;;;;;;5105672;27;20039;-59
2023/04/29 01:36:42;;;;;;;110.65;50.30;;;10.50;99.90;;;;;;5102782;28;19908;-59
2023/04/29 01:39:50;;;;;;;111.57;49.38;;;10.60;99.90;;;;;;5101269;28;20604;-60
2023/04/29 01:42:24;;;;;;;109.68;49.97;;;10.60;99.90;;;;;;5090726;27;20024;-59
2023/04/29 01:44:51;;;;;;;98.03;45.47;;;9.50;99.90;;;;;;5102707;28;20662;-60
2023/04/29 01:47:18;;;;;;;96.22;46.67;;;10.70;99.90;;;;;;5101881;28;20035;-60
2023/04/29 01:49:45;;;;;;;87.55;44.20;;;10.50;99.90;;;;;;5102969;28;20089;-59
2023/04/29 01:52:11;;;;;;;93.53;44.55;;;10.70;99.90;;;;;;5101859;27;20320;-60
2023/04/29 01:54:37;;;;;;;86.20;44.05;;;10.60;99.90;;;;;;5090330;28;20491;-59
2023/04/29 01:57:03;;;;;;;90.50;43.17;;;10.50;99.90;;;;;;5098011;28;20027;-60
2023/04/29 01:59:29;;;;;;;92.20;44.28;;;10.40;99.90;;;;;;5102626;28;20047;-59
2023/04/29 02:01:58;;;;;;;89.63;43.80;;;10.50;99.90;;;;;;5102502;28;20039;-60
2023/04/29 02:04:24;;;;;;;99.13;45.60;;;10.50;99.90;;;;;;5110603;27;20031;-60
2023/04/29 02:06:51;;;;;;;91.07;43.00;;;10.60;99.90;;;;;;5102159;28;20063;-59
2023/04/29 02:09:17;;;;;;;90.70;44.08;;;10.40;99.90;;;;;;5101606;28;20141;-59
2023/04/29 02:11:42;;;;;;;93.88;45.22;;;10.30;99.90;;;;;;5094791;27;20040;-59
2023/04/29 02:14:08;;;;;;;92.55;43.20;;;10.30;99.90;;;;;;5101856;28;20475;-59
2023/04/29 02:16:34;;;;;;;108.57;46.40;;;10.30;99.90;;;;;;5101964;27;20027;-60
2023/04/29 02:18:59;;;;;;;104.53;47.88;;;10.60;99.90;;;;;;5102102;28;20278;-60
2023/04/29 02:21:26;;;;;;;101.93;46.83;;;10.70;99.90;;;;;;5101625;28;20605;-60
2023/04/29 02:23:53;;;;;;;108.20;47.65;;;10.40;99.90;;;;;;5102124;28;20039;-60
2023/04/29 02:26:19;;;;;;;107.70;48.72;;;10.40;99.90;;;;;;5100215;28;20126;-59
2023/04/29 02:28:44;;;;;;;112.22;49.83;;;10.30;99.90;;;;;;5095295;28;20154;-60
2023/04/29 02:31:10;;;;;;;110.22;49.97;;;10.20;99.90;;;;;;5116990;28;20799;-59
2023/04/29 02:33:35;;;;;;;114.60;51.00;;;10.40;99.90;;;;;;5111557;28;20438;-59
2023/04/29 02:36:01;;;;;;;113.47;52.95;;;10.40;99.90;;;;;;5102073;28;20040;-59
2023/04/29 02:38:26;;;;;;;121.88;54.33;;;10.30;99.90;;;;;;5100954;28;20042;-59
2023/04/29 02:40:52;;;;;;;120.15;53.65;;;10.30;99.90;;;;;;5096147;28;20448;-59
2023/04/29 02:43:18;;;;;;;130.20;55.40;;;10.20;99.90;;;;;;5100148;28;20315;-59
2023/04/29 02:45:43;;;;;;;123.45;53.05;;;10.30;99.90;;;;;;5101974;28;20067;-59
2023/04/29 02:48:09;;;;;;;127.10;55.25;;;10.10;99.90;;;;;;5101266;28;20038;-60
2023/04/29 02:50:34;;;;;;;126.45;53.78;;;9.90;99.90;;;;;;5083052;28;20062;-59
2023/04/29 02:53:00;;;;;;;123.88;54.72;;;10.10;99.90;;;;;;5101880;28;20052;-60
2023/04/29 02:55:26;;;;;;;120.80;51.78;;;10.30;99.90;;;;;;5101444;28;20055;-60
2023/04/29 02:57:52;;;;;;;127.47;55.17;;;10.30;99.90;;;;;;5102081;28;20732;-60
2023/04/29 03:00:17;;;;;;;119.40;53.45;;;10.20;99.90;;;;;;5100978;27;20058;-59
2023/04/29 03:02:43;;;;;;;113.93;51.85;;;10.20;99.90;;;;;;5107825;28;20126;-59
2023/04/29 03:05:09;;;;;;;111.97;51.38;;;10.20;99.90;;;;;;5104460;28;20380;-59
2023/04/29 03:07:34;;;;;;;110.55;50.25;;;10.20;99.90;;;;;;5101779;28;20085;-60
2023/04/29 03:10:00;;;;;;;113.70;50.30;;;10.40;99.90;;;;;;5083458;28;20135;-60
2023/04/29 03:12:26;;;;;;;113.10;50.15;;;10.30;99.90;;;;;;5064878;28;20039;-59
2023/04/29 03:14:51;;;;;;;110.10;49.55;;;10.30;99.90;;;;;;5101821;28;20059;-59
2023/04/29 03:17:17;;;;;;;106.18;47.28;;;10.30;99.90;;;;;;5100842;28;20055;-59
2023/04/29 03:19:43;;;;;;;98.80;46.63;;;10.00;99.90;;;;;;5101541;28;20040;-60
2023/04/29 03:22:10;;;;;;;102.03;45.03;;;10.10;99.90;;;;;;5093126;28;20580;-59
2023/04/29 03:24:39;;;;;;;83.35;42.33;;;10.10;99.90;;;;;;5097745;28;20495;-60
2023/04/29 03:27:04;;;;;;;79.15;39.30;;;10.10;99.90;;;;;;5104933;28;20040;-59
2023/04/29 03:29:30;;;;;;;70.38;34.95;;;10.00;99.90;;;;;;5104993;28;20039;-59
2023/04/29 03:31:57;;;;;;;70.57;34.70;;;9.90;99.90;;;;;;5105115;28;20110;-60
2023/04/29 03:34:23;;;;;;;69.68;34.25;;;9.90;99.90;;;;;;5105625;27;20039;-59
2023/04/29 03:36:50;;;;;;;64.75;33.78;;;9.90;99.90;;;;;;5105495;28;20028;-60
2023/04/29 03:39:15;;;;;;;63.83;32.10;;;10.10;99.90;;;;;;5104764;27;20050;-60
2023/04/29 03:41:41;;;;;;;70.25;34.35;;;9.90;99.90;;;;;;5100976;28;20463;-59
2023/04/29 03:44:07;;;;;;;66.32;33.70;;;9.80;99.90;;;;;;5103668;27;20028;-59
2023/04/29 03:46:32;;;;;;;67.82;31.98;;;9.80;99.90;;;;;;5104846;28;20058;-59
2023/04/29 03:48:58;;;;;;;66.50;33.65;;;9.80;99.90;;;;;;5105040;28;20028;-59
2023/04/29 03:51:24;;;;;;;65.75;32.90;;;9.90;99.90;;;;;;5104509;28;20224;-59
2023/04/29 03:53:51;;;;;;;65.13;32.17;;;10.00;99.90;;;;;;5105077;28;20027;-59
2023/04/29 03:56:16;;;;;;;62.95;31.17;;;10.10;99.90;;;;;;5103270;27;20579;-59
2023/04/29 03:58:42;;;;;;;59.05;31.15;;;9.80;99.90;;;;;;5104743;28;20099;-59
2023/04/29 04:01:07;;;;;;;55.75;31.15;;;9.90;99.90;;;;;;5103964;28;20551;-60
2023/04/29 04:03:33;;;;;;;61.83;31.75;;;9.90;99.90;;;;;;5114016;27;20116;-59
2023/04/29 04:05:59;;;;;;;65.38;33.55;;;9.90;99.90;;;;;;5103120;27;20051;-60
2023/04/29 04:08:24;;;;;;;59.97;32.13;;;10.00;99.90;;;;;;5085651;28;20032;-59
2023/04/29 04:10:50;;;;;;;60.83;31.08;;;9.90;99.90;;;;;;5098842;28;20126;-59
2023/04/29 04:13:15;;;;;;;57.85;31.30;;;10.00;99.90;;;;;;5102188;28;20036;-59
2023/04/29 04:15:41;;;;;;;58.33;31.55;;;9.90;99.90;;;;;;5104449;28;20031;-60
2023/04/29 04:18:07;;;;;;;58.33;31.48;;;9.90;99.90;;;;;;5102053;28;20042;-59
2023/04/29 04:20:35;;;;;;;59.42;29.80;;;9.90;99.90;;;;;;5104234;28;20046;-60
2023/04/29 04:23:01;;;;;;;58.22;31.90;;;9.80;99.90;;;;;;5104408;28;20042;-59
2023/04/29 04:25:27;;;;;;;54.60;30.25;;;9.80;99.90;;;;;;5103415;28;20119;-59
2023/04/29 04:27:53;;;;;;;56.47;30.25;;;9.90;99.90;;;;;;5103626;27;20092;-59
2023/04/29 04:30:18;;;;;;;54.53;30.08;;;9.90;99.90;;;;;;5103451;28;20067;-60
2023/04/29 04:32:45;;;;;;;57.33;29.73;;;9.90;99.90;;;;;;5110491;27;20051;-59
2023/04/29 04:35:11;;;;;;;56.45;30.15;;;10.00;99.90;;;;;;5105426;28;20055;-59
2023/04/29 04:37:36;;;;;;;53.30;30.02;;;10.10;99.90;;;;;;5103934;28;20112;-60
2023/04/29 04:40:03;;;;;;;56.75;30.52;;;10.00;99.90;;;;;;5095930;28;20489;-60
2023/04/29 04:42:28;;;;;;;59.47;30.02;;;10.20;99.90;;;;;;5095899;28;20103;-60
2023/04/29 04:44:54;;;;;;;50.63;28.88;;;10.10;99.90;;;;;;5104153;28;20052;-59
2023/04/29 04:47:20;;;;;;;57.13;29.33;;;9.90;99.90;;;;;;5103550;28;20161;-59
2023/04/29 04:49:45;;;;;;;55.20;29.83;;;9.90;99.90;;;;;;5103477;27;20110;-60
2023/04/29 04:52:11;;;;;;;56.17;30.00;;;10.10;99.90;;;;;;5103215;28;20035;-60
2023/04/29 04:54:37;;;;;;;54.38;30.60;;;10.20;99.90;;;;;;5103683;28;20420;-59
2023/04/29 04:57:04;;;;;;;54.03;30.05;;;10.30;99.90;;;;;;5103179;28;20036;-60
2023/04/29 04:59:30;;;;;;;52.75;29.67;;;10.30;99.90;;;;;;5103490;28;20040;-59
2023/04/29 05:01:56;;;;;;;55.13;30.92;;;10.20;99.90;;;;;;5084483;28;20035;-59
2023/04/29 05:04:21;;;;;;;50.72;28.70;;;10.10;99.90;;;;;;5112302;27;20035;-59
2023/04/29 05:06:47;;;;;;;52.58;28.73;;;10.20;99.90;;;;;;5102560;28;20092;-59
2023/04/29 05:09:13;;;;;;;55.03;30.05;;;10.20;99.90;;;;;;5102410;28;20040;-59
2023/04/29 05:11:38;;;;;;;53.53;29.35;;;10.10;99.90;;;;;;5102535;27;20055;-59
2023/04/29 05:14:04;;;;;;;51.03;28.02;;;10.20;99.90;;;;;;5102379;28;20100;-59
2023/04/29 05:16:29;;;;;;;48.20;28.23;;;10.40;99.90;;;;;;5103138;28;20080;-60
2023/04/29 05:18:55;;;;;;;49.67;27.83;;;10.40;99.90;;;;;;5102664;28;20403;-60
2023/04/29 05:21:21;;;;;;;47.00;27.95;;;10.30;99.90;;;;;;5102586;28;20432;-59
2023/04/29 05:23:46;;;;;;;54.92;28.38;;;10.20;99.90;;;;;;5102617;27;20031;-59
2023/04/29 05:26:12;;;;;;;53.20;29.63;;;10.20;99.90;;;;;;5102384;28;20133;-59
2023/04/29 05:28:37;;;;;;;47.75;28.30;;;10.30;99.90;;;;;;5103284;28;20131;-59
2023/04/29 05:31:03;;;;;;;50.38;28.60;;;10.20;99.90;;;;;;5102182;28;20035;-59
2023/04/29 05:33:29;;;;;;;51.00;28.10;;;10.20;99.90;;;;;;5111539;27;20032;-60
2023/04/29 05:35:54;;;;;;;45.38;27.33;;;10.30;99.90;;;;;;5102695;28;20063;-59
2023/04/29 05:38:20;;;;;;;49.42;28.17;;;10.20;99.90;;;;;;5102442;28;20024;-60
2023/04/29 05:40:48;;;;;;;49.20;29.23;;;10.30;99.90;;;;;;5097513;28;20020;-60
2023/04/29 05:43:14;;;;;;;46.45;26.77;;;10.00;99.90;;;;;;5100171;27;20134;-59
2023/04/29 05:45:39;;;;;;;47.13;26.77;;;10.20;99.90;;;;;;5094761;27;20540;-60
2023/04/29 05:48:05;;;;;;;49.15;28.25;;;10.20;99.90;;;;;;5102092;28;20036;-59
2023/04/29 05:50:31;;;;;;;45.20;26.60;;;10.30;99.90;;;;;;5102857;28;20437;-60
2023/04/29 05:52:56;;;;;;;48.28;27.92;;;10.30;99.90;;;;;;5102451;28;20116;-59
2023/04/29 05:55:22;;;;;;;47.03;27.50;;;10.20;99.90;;;;;;5101129;28;20031;-60
2023/04/29 05:57:48;;;;;;;45.08;26.80;;;10.30;99.90;;;;;;5102219;27;20038;-59
2023/04/29 06:00:13;;;;;;;47.00;27.77;;;10.20;99.90;;;;;;5101920;28;20036;-59
2023/04/29 06:02:41;;;;;;;47.30;26.65;;;10.00;99.90;;;;;;5107731;27;20216;-60
2023/04/29 06:05:07;;;;;;;44.55;26.45;;;10.30;99.90;;;;;;5105153;27;20027;-59
2023/04/29 06:07:33;;;;;;;45.55;26.42;;;10.30;99.90;;;;;;5092943;28;20040;-59
2023/04/29 06:09:59;;;;;;;42.58;25.70;;;10.20;99.90;;;;;;5084183;28;20399;-59
2023/04/29 06:12:24;;;;;;;39.35;24.52;;;10.20;99.90;;;;;;5094276;28;20085;-60
2023/04/29 06:14:50;;;;;;;41.72;25.75;;;10.10;99.90;;;;;;5102479;28;20024;-60
2023/04/29 06:17:15;;;;;;;39.90;24.88;;;10.20;99.90;;;;;;5098950;28;20343;-59
2023/04/29 06:19:41;;;;;;;37.97;24.65;;;10.20;99.90;;;;;;5083673;28;20034;-60
2023/04/29 06:22:06;;;;;;;38.03;24.70;;;10.00;99.90;;;;;;5101467;28;20478;-60
2023/04/29 06:24:32;;;;;;;41.13;24.95;;;9.90;99.90;;;;;;5102413;28;20341;-59
2023/04/29 06:26:57;;;;;;;40.13;24.05;;;10.00;99.90;;;;;;5102508;28;20039;-59
2023/04/29 06:29:23;;;;;;;39.15;23.70;;;10.20;99.90;;;;;;5093527;28;20551;-59
2023/04/29 06:31:49;;;;;;;39.83;23.98;;;10.20;99.90;;;;;;5101764;28;20042;-59
2023/04/29 06:34:15;;;;;;;37.47;24.45;;;10.30;99.90;;;;;;5110846;28;20036;-59
2023/04/29 06:36:40;;;;;;;41.35;25.05;;;10.20;99.90;;;;;;5102146;28;20115;-60
2023/04/29 06:39:06;;;;;;;39.15;23.60;;;10.30;99.90;;;;;;5101338;28;20078;-60
2023/04/29 06:41:32;;;;;;;41.90;24.38;;;10.20;99.90;;;;;;5093954;28;20035;-59
2023/04/29 06:43:58;;;;;;;38.53;24.13;;;10.20;99.90;;;;;;5101852;28;20558;-60
2023/04/29 06:46:23;;;;;;;40.75;24.13;;;10.30;99.90;;;;;;5101315;28;20131;-59
2023/04/29 06:48:49;;;;;;;38.72;23.70;;;10.10;99.90;;;;;;5101812;28;20104;-60
2023/04/29 06:51:15;;;;;;;44.45;24.17;;;10.20;99.90;;;;;;5100827;28;20028;-60
2023/04/29 06:53:40;;;;;;;37.70;24.17;;;10.40;99.90;;;;;;5101922;28;20362;-59
2023/04/29 06:56:06;;;;;;;35.28;22.95;;;10.30;99.90;;;;;;5101552;28;20039;-60
2023/04/29 06:58:32;;;;;;;37.92;22.70;;;10.30;99.90;;;;;;5105031;28;20584;-60
2023/04/29 07:00:57;;;;;;;34.42;21.65;;;10.30;99.90;;;;;;5105396;28;20339;-60
2023/04/29 07:03:23;;;;;;;39.17;22.95;;;10.30;99.90;;;;;;5104614;27;20039;-60
2023/04/29 07:05:48;;;;;;;35.60;23.10;;;10.40;99.90;;;;;;5105016;27;20057;-60
2023/04/29 07:08:14;;;;;;;37.55;24.75;;;10.50;99.90;;;;;;5105414;28;20036;-60
2023/04/29 07:10:40;;;;;;;32.03;22.27;;;10.40;99.90;;;;;;5101412;28;20039;-60
2023/04/29 07:13:06;;;;;;;35.92;23.02;;;10.50;99.90;;;;;;5094179;27;20044;-60
2023/04/29 07:15:35;;;;;;;32.60;22.55;;;10.70;99.90;;;;;;5104863;28;20534;-60
2023/04/29 07:18:04;;;;;;;34.08;22.13;;;10.80;99.90;;;;;;5105353;28;20043;-60
2023/04/29 07:20:29;;;;;;;34.13;21.70;;;10.80;99.90;;;;;;5104774;27;20042;-59
2023/04/29 07:22:55;;;;;;;34.35;22.90;;;10.50;99.90;;;;;;5105005;27;20122;-59
2023/04/29 07:25:21;;;;;;;33.42;22.63;;;10.50;99.90;;;;;;5088439;27;20391;-60
2023/04/29 07:27:47;;;;;;;31.33;21.42;;;10.80;99.90;;;;;;5105096;28;20483;-60
2023/04/29 07:30:13;;;;;;;33.58;21.83;;;10.70;99.90;;;;;;5104334;28;20051;-60
2023/04/29 07:32:38;;;;;;;32.88;21.25;;;10.80;99.90;;;;;;5110386;27;20554;-60
2023/04/29 07:35:04;;;;;;;29.75;21.38;;;10.90;99.90;;;;;;5101272;27;20044;-59
2023/04/29 07:37:30;;;;;;;31.08;20.67;;;11.20;99.90;;;;;;5104801;28;20032;-59
2023/04/29 07:39:55;;;;;;;28.65;19.65;;;11.00;99.90;;;;;;5104942;28;20042;-59
2023/04/29 07:42:21;;;;;;;33.83;20.98;;;10.90;99.90;;;;;;5096861;28;20046;-59
2023/04/29 07:44:47;;;;;;;29.17;20.23;;;11.00;99.90;;;;;;5104953;28;20034;-60
2023/04/29 07:47:12;;;;;;;28.95;19.83;;;11.10;99.90;;;;;;5103708;28;20036;-59
2023/04/29 07:49:38;;;;;;;29.10;19.77;;;11.00;99.90;;;;;;5086603;28;20088;-59
2023/04/29 07:52:08;;;;;;;31.42;21.60;;;11.00;99.90;;;;;;5090592;28;20651;-60
2023/04/29 07:54:35;;;;;;;30.23;20.67;;;11.30;99.90;;;;;;5104701;28;20491;-60
2023/04/29 07:57:02;;;;;;;30.65;20.83;;;11.30;99.90;;;;;;5097957;27;20040;-60
2023/04/29 07:59:28;;;;;;;28.58;20.95;;;11.30;99.90;;;;;;5103478;28;20104;-60
2023/04/29 08:01:54;;;;;;;28.45;20.23;;;11.40;99.90;;;;;;5104693;28;20035;-59
2023/04/29 08:04:20;;;;;;;34.00;19.92;;;11.10;99.90;;;;;;5111397;27;20552;-60
2023/04/29 08:06:45;;;;;;;29.35;20.40;;;10.90;99.90;;;;;;5094899;28;20027;-61
2023/04/29 08:09:11;;;;;;;26.85;19.42;;;11.10;99.90;;;;;;5100220;27;20133;-60
2023/04/29 08:11:38;;;;;;;29.88;20.60;;;10.90;99.90;;;;;;5103311;27;20027;-60
2023/04/29 08:14:04;;;;;;;29.33;20.00;;;10.80;99.90;;;;;;5103704;28;20058;-60
2023/04/29 08:16:30;;;;;;;33.95;21.70;;;10.90;99.90;;;;;;5104000;28;20071;-60
2023/04/29 08:18:56;;;;;;;29.65;19.52;;;10.90;99.90;;;;;;5097622;27;20021;-59
2023/04/29 08:21:22;;;;;;;31.55;20.83;;;10.80;99.90;;;;;;5091894;28;20130;-60
2023/04/29 08:23:47;;;;;;;32.83;21.65;;;10.90;99.90;;;;;;5104152;28;20107;-60
2023/04/29 08:26:13;;;;;;;30.90;21.67;;;10.90;99.90;;;;;;5103459;28;20398;-61
2023/04/29 08:28:39;;;;;;;34.78;22.88;;;10.70;99.90;;;;;;5103939;28;20039;-60
2023/04/29 08:31:06;;;;;;;35.47;22.50;;;10.60;99.90;;;;;;5103126;27;20028;-60
2023/04/29 08:33:38;;;;;;;34.72;21.90;;;10.60;99.90;;;;;;5104158;28;20038;-60
2023/04/29 08:36:04;;;;;;;35.72;23.00;;;10.90;99.90;;;;;;5103262;28;20036;-60
2023/04/29 08:38:29;;;;;;;33.63;23.15;;;10.90;99.90;;;;;;5103763;28;20531;-60
2023/04/29 08:40:55;;;;;;;33.17;21.80;;;10.70;99.90;;;;;;5097712;27;20455;-60
2023/04/29 08:43:21;;;;;;;31.98;22.60;;;10.60;99.90;;;;;;5102315;27;20346;-60
2023/04/29 08:45:50;;;;;;;35.08;22.77;;;10.70;99.90;;;;;;5103952;28;20591;-60
2023/04/29 08:48:17;;;;;;;41.47;25.27;;;10.70;99.90;;;;;;5103259;27;20038;-60
2023/04/29 08:50:43;;;;;;;34.20;22.77;;;10.60;99.90;;;;;;5102171;27;20055;-61
2023/04/29 08:53:10;;;;;;;37.00;24.08;;;10.70;99.90;;;;;;5100954;27;20058;-59
2023/04/29 08:55:43;;;;;;;38.38;25.08;;;10.70;99.90;;;;;;5096067;27;20055;-60
2023/04/29 08:58:09;;;;;;;;;;;10.60;99.90;;;;;;5103928;27;20062;-60
2023/04/29 09:00:36;;;;;;;41.38;25.90;;;10.70;99.90;;;;;;5103270;28;19922;-60
2023/04/29 09:03:21;;;;;;;38.30;24.98;;;10.70;99.90;;;;;;5102316;27;20047;-58
2023/04/29 09:05:49;;;;;;;39.08;25.02;;;10.60;99.90;;;;;;5103423;28;20024;-59
2023/04/29 09:08:15;;;;;;;37.05;24.52;;;10.70;99.90;;;;;;5103198;28;20172;-60
2023/04/29 09:10:41;;;;;;;37.50;25.52;;;10.70;99.90;;;;;;5102517;28;20039;-60
2023/04/29 09:13:07;;;;;;;39.53;25.23;;;10.70;99.90;;;;;;5086447;28;20036;-60
2023/04/29 09:15:39;;;;;;;39.75;26.63;;;10.90;99.90;;;;;;5086880;28;20044;-59
2023/04/29 09:18:04;;;;;;;41.00;25.55;;;10.70;99.90;;;;;;5102497;28;20067;-60
2023/04/29 09:20:30;;;;;;;37.28;25.00;;;10.90;99.90;;;;;;5101497;28;20060;-59
2023/04/29 09:23:02;;;;;;;44.55;25.33;;;10.70;99.90;;;;;;5102908;28;20051;-59
2023/04/29 09:25:28;;;;;;;40.17;25.77;;;10.80;99.90;;;;;;5102941;28;20061;-60
2023/04/29 09:27:54;;;;;;;39.55;24.98;;;10.80;99.90;;;;;;5102903;28;20027;-60
2023/04/29 09:30:21;;;;;;;42.70;25.20;;;10.80;99.90;;;;;;5101966;27;20067;-60
2023/04/29 09:33:04;;;;;;;43.53;26.85;;;10.70;99.90;;;;;;5102090;27;20039;-59
2023/04/29 09:35:30;;;;;;;39.85;26.13;;;10.90;99.90;;;;;;5102496;28;20059;-60
2023/04/29 09:38:12;;;;;;;37.83;26.20;;;11.00;99.90;;;;;;5102931;28;20451;-60
2023/04/29 09:40:40;;;;;;;43.22;26.85;;;11.10;99.90;;;;;;5102552;28;20523;-60
2023/04/29 09:43:13;;;;;;;42.92;27.00;;;11.30;99.90;;;;;;5101935;28;20035;-60
2023/04/29 09:45:41;;;;;;;39.35;26.35;;;11.30;99.90;;;;;;5118195;27;20064;-60
2023/04/29 09:48:08;;;;;;;41.00;25.73;;;11.20;99.90;;;;;;5102022;28;20563;-60
2023/04/29 09:50:38;;;;;;;45.15;27.02;;;11.10;99.90;;;;;;5084130;28;20114;-60
2023/04/29 09:53:06;;;;;;;45.53;28.13;;;11.30;99.90;;;;;;5101946;28;20092;-60
2023/04/29 09:55:32;;;;;;;40.65;26.63;;;11.30;99.90;;;;;;5102370;27;20731;-60
2023/04/29 09:57:59;;;;;;;36.42;24.50;;;11.50;99.90;;;;;;5102301;27;20031;-60
2023/04/29 10:00:26;;;;;;;37.88;24.67;;;11.30;99.90;;;;;;5101886;28;20092;-60
2023/04/29 10:02:55;;;;;;;36.08;24.92;;;11.30;99.90;;;;;;5101956;28;20039;-59
2023/04/29 10:05:21;;;;;;;35.20;24.98;;;11.40;99.90;;;;;;5093605;27;20047;-60
2023/04/29 10:07:49;;;;;;;36.00;24.35;;;11.50;99.90;;;;;;5102241;28;20036;-60
2023/04/29 10:10:15;;;;;;;36.40;24.35;;;11.50;99.90;;;;;;5101697;28;20117;-60
2023/04/29 10:12:43;;;;;;;35.80;24.23;;;11.50;99.90;;;;;;5102573;28;20066;-59
2023/04/29 10:15:16;;;;;;;37.88;24.88;;;11.50;99.90;;;;;;5101233;28;20039;-59
2023/04/29 10:18:16;;;;;;;33.53;23.77;;;11.90;99.90;;;;;;5089677;28;20039;-59
2023/04/29 10:20:46;;;;;;;35.42;24.77;;;11.50;99.90;;;;;;5101781;28;20035;-60
2023/04/29 10:23:15;;;;;;;36.13;24.05;;;11.70;99.90;;;;;;5101922;28;20039;-59
2023/04/29 10:25:43;;;;;;;34.60;23.67;;;11.90;99.90;;;;;;5102323;28;20277;-59
2023/04/29 10:28:15;;;;;;;33.78;23.27;;;11.90;99.90;;;;;;5101023;28;20039;-60
2023/04/29 10:30:49;;;;;;;35.58;23.70;;;11.60;99.90;;;;;;5102522;28;20419;-60
2023/04/29 10:33:16;;;;;;;39.13;23.35;;;11.60;99.90;;;;;;5106034;28;20516;-60
2023/04/29 10:35:46;;;;;;;37.80;23.27;;;11.70;99.90;;;;;;5106420;28;20027;-60
2023/04/29 10:38:33;;;;;;;35.55;23.92;;;11.90;99.90;;;;;;5105078;28;20035;-60
2023/04/29 10:41:07;;;;;;;35.75;23.25;;;11.80;99.90;;;;;;5105795;28;20130;-60
2023/04/29 10:43:32;;;;;;;;;;;11.90;99.90;;;;;;5099310;28;20036;-60
2023/04/29 10:46:27;;;;;;;30.73;22.75;;;12.20;99.90;;;;;;5106073;28;20004;-60
2023/04/29 10:49:07;;;;;;;32.95;23.58;;;12.30;99.90;;;;;;5081559;28;20040;-60
2023/04/29 10:51:41;;;;;;;38.72;25.55;;;12.10;99.90;;;;;;5105671;28;20081;-60
2023/04/29 10:54:14;;;;;;;36.65;24.17;;;12.30;99.90;;;;;;5105688;28;20112;-60
2023/04/29 10:56:50;;;;;;;34.30;24.13;;;12.60;99.90;;;;;;5105938;28;20402;-59
2023/04/29 10:59:42;;;;;;;33.65;23.25;;;12.50;99.90;;;;;;5104251;27;20663;-60
2023/04/29 11:02:09;;;;;;;31.98;24.30;;;12.50;99.90;;;;;;5104826;27;20458;-59
2023/04/29 11:05:16;;;;;;;32.60;23.17;;;12.50;99.90;;;;;;5104326;28;20574;-60
2023/04/29 11:07:44;;;;;;;27.55;22.13;;;12.60;99.90;;;;;;5091415;28;20028;-60
2023/04/29 11:10:12;;;;;;;32.60;23.15;;;12.70;99.90;;;;;;5104474;28;20065;-60
2023/04/29 11:12:37;;;;;;;29.45;22.88;;;13.00;99.90;;;;;;5098435;27;20462;-60
2023/04/29 11:15:04;;;;;;;32.45;22.23;;;13.10;99.90;;;;;;5105170;28;20035;-60
2023/04/29 11:17:37;;;;;;;35.65;22.50;;;12.80;99.90;;;;;;5104588;28;20818;-59
2023/04/29 11:20:03;;;;;;;29.55;22.20;;;13.10;99.90;;;;;;5104477;27;20191;-59
2023/04/29 11:22:30;;;;;;;26.23;20.98;;;13.40;99.90;;;;;;5097788;27;20735;-59
2023/04/29 11:24:59;;;;;;;29.45;22.33;;;13.50;99.90;;;;;;5071972;28;20028;-59
2023/04/29 11:27:28;;;;;;;30.10;21.30;;;13.50;99.90;;;;;;5085363;28;20343;-60
2023/04/29 11:29:58;;;;;;;30.40;21.30;;;13.30;99.90;;;;;;5105180;28;20486;-60
2023/04/29 11:32:25;;;;;;;29.85;21.33;;;13.30;99.90;;;;;;5103714;28;20378;-60
2023/04/29 11:34:51;;;;;;;29.80;21.15;;;13.40;99.90;;;;;;5105188;28;20027;-59
2023/04/29 11:37:25;;;;;;;27.50;19.30;;;13.00;99.90;;;;;;5105058;28;20093;-60
2023/04/29 11:39:58;;;;;;;26.63;20.52;;;13.50;99.90;;;;;;5105068;28;20028;-60
2023/04/29 11:42:24;;;;;;;27.85;20.63;;;13.70;99.90;;;;;;5104425;28;20694;-60
2023/04/29 11:44:55;;;;;;;25.63;20.15;;;13.80;99.90;;;;;;5103610;28;20053;-60
2023/04/29 11:47:28;;;;;;;28.65;19.95;;;13.90;99.90;;;;;;5104021;28;20046;-60
2023/04/29 11:50:01;;;;;;;27.35;19.38;;;13.70;99.90;;;;;;5104883;28;20066;-59
2023/04/29 11:52:27;;;;;;;29.73;19.90;;;13.80;99.90;;;;;;5104181;27;20514;-59
2023/04/29 11:54:53;;;;;;;26.25;19.88;;;13.60;99.90;;;;;;5104084;27;20039;-59
2023/04/29 11:57:19;;;;;;;26.85;19.75;;;13.60;99.90;;;;;;5104025;28;20089;-60
2023/04/29 11:59:46;;;;;;;24.90;19.42;;;13.60;99.90;;;;;;5104527;28;20062;-59
2023/04/29 12:02:12;;;;;;;31.13;19.50;;;13.60;99.90;;;;;;5104429;28;20046;-59
2023/04/29 12:04:45;;;;;;;25.60;19.80;;;13.70;99.90;;;;;;5104900;28;20079;-59
2023/04/29 12:07:16;;;;;;;28.80;20.23;;;13.70;99.90;;;;;;5103287;27;20043;-60
2023/04/29 12:09:46;;;;;;;24.15;19.05;;;13.50;99.90;;;;;;5104405;28;20639;-59
2023/04/29 12:12:13;;;;;;;24.60;18.75;;;13.60;99.90;;;;;;5104437;28;20509;-59
2023/04/29 12:14:40;;;;;;;25.38;18.35;;;14.00;99.90;;;;;;5104621;28;20455;-60
2023/04/29 12:17:06;;;;;;;24.30;18.90;;;13.90;99.90;;;;;;5102575;27;20043;-60
2023/04/29 12:19:32;;;;;;;22.75;17.70;;;14.20;99.90;;;;;;5101965;28;20593;-59
2023/04/29 12:21:59;;;;;;;24.23;16.45;;;14.10;99.90;;;;;;5104360;28;20077;-60
2023/04/29 12:24:24;;;;;;;20.17;16.00;;;14.20;99.90;;;;;;5103563;28;20080;-60
2023/04/29 12:26:50;;;;;;;21.23;16.42;;;14.50;99.90;;;;;;5104389;28;20027;-60
2023/04/29 12:29:15;;;;;;;24.52;17.13;;;14.70;99.90;;;;;;5102840;27;20683;-59